createdAt,value
2022-10-13T00:00:23.469Z,14.80
2022-10-13T00:05:31.533Z,15.40
2022-10-13T00:10:41.187Z,14.50
2022-10-13T00:15:49.707Z,13.90
2022-10-13T00:20:57.241Z,15.00
2022-10-13T00:26:06.603Z,15.10
2022-10-13T00:31:22.341Z,16.70
2022-10-13T00:36:30.365Z,13.90
2022-10-13T00:46:43.147Z,15.70
2022-10-13T00:51:51.955Z,15.40
2022-10-13T00:56:59.599Z,15.50
2022-10-13T01:02:07.334Z,17.80
2022-10-13T01:07:15.381Z,17.80
2022-10-13T01:17:45.245Z,15.60
2022-10-13T01:23:08.775Z,19.40
2022-10-13T01:28:36.538Z,20.30
2022-10-13T01:33:51.232Z,15.80
2022-10-13T01:39:07.155Z,16.20
2022-10-13T01:44:22.421Z,17.10
2022-10-13T01:49:39.349Z,19.00
2022-10-13T01:54:51.897Z,17.90
2022-10-13T01:59:59.782Z,18.40
2022-10-13T02:05:19.853Z,17.50
2022-10-13T02:10:33.692Z,19.10
2022-10-13T02:15:47.527Z,19.10
2022-10-13T02:20:55.654Z,19.60
2022-10-13T02:26:03.843Z,17.60
2022-10-13T02:31:12.114Z,19.50
2022-10-13T02:36:19.328Z,19.60
2022-10-13T02:41:26.672Z,19.30
2022-10-13T02:46:33.923Z,20.20
2022-10-13T02:51:41.280Z,20.20
2022-10-13T02:56:48.645Z,19.60
2022-10-13T03:01:57.129Z,20.40
2022-10-13T03:07:06.478Z,18.40
2022-10-13T03:12:13.946Z,20.10
2022-10-13T03:17:21.410Z,20.90
2022-10-13T03:22:29.116Z,20.90
2022-10-13T03:27:36.752Z,17.70
2022-10-13T03:32:44.224Z,19.40
2022-10-13T03:37:51.340Z,16.60
2022-10-13T03:42:58.670Z,19.40
2022-10-13T03:48:06.030Z,23.90
2022-10-13T03:53:13.415Z,19.60
2022-10-13T03:58:24.377Z,20.20
2022-10-13T04:03:34.668Z,19.60
2022-10-13T04:08:42.238Z,18.70
2022-10-13T04:13:49.479Z,18.90
2022-10-13T04:18:58.437Z,21.60
2022-10-13T04:24:07.276Z,21.00
2022-10-13T04:29:15.112Z,21.90
2022-10-13T04:34:22.839Z,19.80
2022-10-13T04:39:30.168Z,20.30
2022-10-13T04:44:37.352Z,22.10
2022-10-13T04:49:45.705Z,21.00
2022-10-13T04:54:53.091Z,21.50
2022-10-13T05:00:02.570Z,21.80
2022-10-13T05:05:16.771Z,20.70
2022-10-13T05:10:24.834Z,21.30
2022-10-13T05:15:31.801Z,21.80
2022-10-13T05:20:38.785Z,22.70
2022-10-13T05:25:45.878Z,22.90
2022-10-13T05:30:58.200Z,22.40
2022-10-13T05:36:08.631Z,23.40
2022-10-13T05:41:17.697Z,21.70
2022-10-13T05:46:24.677Z,25.30
2022-10-13T05:51:35.914Z,24.90
2022-10-13T05:56:48.359Z,26.60
2022-10-13T06:01:56.490Z,25.70
2022-10-13T06:07:05.562Z,25.20
2022-10-13T06:12:13.041Z,25.80
2022-10-13T06:17:20.242Z,25.60
2022-10-13T06:22:27.328Z,26.10
2022-10-13T06:27:34.937Z,26.10
2022-10-13T06:32:41.823Z,24.70
2022-10-13T06:37:50.491Z,23.00
2022-10-13T06:42:57.693Z,24.10
2022-10-13T06:48:04.877Z,25.70
2022-10-13T06:53:12.631Z,23.70
2022-10-13T06:58:19.828Z,24.30
2022-10-13T07:03:26.851Z,22.70
2022-10-13T07:08:34.403Z,21.40
2022-10-13T07:13:45.318Z,21.40
2022-10-13T07:18:55.583Z,21.80
2022-10-13T07:24:04.466Z,21.90
2022-10-13T07:29:11.517Z,20.80
2022-10-13T07:34:18.620Z,20.10
2022-10-13T07:39:26.229Z,19.40
2022-10-13T07:44:33.371Z,19.70
2022-10-13T07:49:40.488Z,19.10
2022-10-13T07:54:47.813Z,19.60
2022-10-13T07:59:55.085Z,20.10
2022-10-13T08:05:03.018Z,19.70
2022-10-13T08:10:11.509Z,18.80
2022-10-13T08:15:18.791Z,18.60
2022-10-13T08:20:28.897Z,19.10
2022-10-13T08:25:44.841Z,18.90
2022-10-13T08:30:53.731Z,17.30
2022-10-13T08:36:01.273Z,16.10
2022-10-13T08:41:26.004Z,16.80
2022-10-13T08:46:47.319Z,15.50
2022-10-13T08:51:55.453Z,17.00
2022-10-13T08:57:02.908Z,16.00
2022-10-13T09:02:17.528Z,15.90
2022-10-13T09:07:30.037Z,14.60
2022-10-13T09:12:37.086Z,14.40
2022-10-13T09:17:44.419Z,13.80
2022-10-13T09:23:05.242Z,12.30
2022-10-13T09:28:19.798Z,12.10
2022-10-13T09:33:27.316Z,10.60
2022-10-13T09:38:35.184Z,10.80
2022-10-13T09:43:59.597Z,11.20
2022-10-13T09:49:09.361Z,9.90
2022-10-13T09:54:34.476Z,9.50
2022-10-13T09:59:51.783Z,9.20
2022-10-13T10:05:05.189Z,9.70
2022-10-13T10:10:24.330Z,7.90
2022-10-13T10:15:39.955Z,8.70
2022-10-13T10:20:57.770Z,7.80
2022-10-13T10:26:12.150Z,6.00
2022-10-13T10:31:31.840Z,6.70
2022-10-13T10:36:51.533Z,8.30
2022-10-13T10:42:07.600Z,6.90
2022-10-13T10:47:23.482Z,7.10
2022-10-13T10:52:36.392Z,6.90
2022-10-13T10:57:57.548Z,7.40
2022-10-13T11:03:11.702Z,7.20
2022-10-13T11:08:31.628Z,7.80
2022-10-13T11:13:54.056Z,6.30
2022-10-13T11:19:07.632Z,6.50
2022-10-13T11:24:49.035Z,7.30
2022-10-13T11:30:00.172Z,6.90
2022-10-13T11:35:22.261Z,7.40
2022-10-13T11:40:34.835Z,6.40
2022-10-13T11:46:02.032Z,6.60
2022-10-13T11:51:23.967Z,7.20
2022-10-13T11:56:48.262Z,6.80
2022-10-13T12:02:01.443Z,8.20
2022-10-13T12:07:11.974Z,6.60
2022-10-13T12:12:23.145Z,6.20
2022-10-13T12:17:36.003Z,6.80
2022-10-13T12:22:50.348Z,5.20
2022-10-13T12:27:59.783Z,6.00
2022-10-13T12:33:24.021Z,6.00
2022-10-13T12:38:31.348Z,6.30
2022-10-13T12:43:39.857Z,6.30
2022-10-13T12:48:48.550Z,6.70
2022-10-13T12:53:56.068Z,6.20
2022-10-13T12:59:03.252Z,7.40
2022-10-13T13:04:29.612Z,6.00
2022-10-13T13:09:39.326Z,5.90
2022-10-13T13:14:49.637Z,6.90
2022-10-13T13:19:58.386Z,7.30
2022-10-13T13:25:06.685Z,7.30
2022-10-13T13:30:18.672Z,7.40
2022-10-13T13:35:26.214Z,7.30
2022-10-13T13:40:33.762Z,7.10
2022-10-13T13:45:41.190Z,8.40
2022-10-13T13:50:51.155Z,6.50
2022-10-13T13:55:58.359Z,7.60
2022-10-13T14:01:05.507Z,7.40
2022-10-13T14:06:19.929Z,7.70
2022-10-13T14:11:27.096Z,7.60
2022-10-13T14:16:34.785Z,8.10
2022-10-13T14:21:46.098Z,7.40
2022-10-13T14:26:58.263Z,7.40
2022-10-13T14:32:05.775Z,6.60
2022-10-13T14:37:13.139Z,5.50
2022-10-13T14:42:23.298Z,7.20
2022-10-13T14:47:31.507Z,7.20
2022-10-13T14:52:38.685Z,8.70
2022-10-13T14:57:46.053Z,7.00
2022-10-13T15:02:53.252Z,6.40
2022-10-13T15:08:00.675Z,6.00
2022-10-13T15:13:07.793Z,7.70
2022-10-13T15:18:15.591Z,6.20
2022-10-13T15:28:30.260Z,7.80
2022-10-13T15:33:37.759Z,7.90
2022-10-13T15:38:44.951Z,7.90
2022-10-13T15:43:51.854Z,9.20
2022-10-13T15:49:00.303Z,10.80
2022-10-13T15:54:07.359Z,10.70
2022-10-13T15:59:14.445Z,10.30
2022-10-13T16:04:21.670Z,11.10
2022-10-13T16:09:33.249Z,9.50
2022-10-13T16:14:43.186Z,8.90
2022-10-13T16:19:50.169Z,9.90
2022-10-13T16:24:57.139Z,10.00
2022-10-13T16:30:04.400Z,9.80
2022-10-13T16:35:12.440Z,11.90
2022-10-13T16:40:19.620Z,9.00
2022-10-13T16:45:47.865Z,9.70
2022-10-13T16:50:54.160Z,8.20
2022-10-13T16:56:02.248Z,7.90
2022-10-13T17:01:11.227Z,9.50
2022-10-13T17:06:20.182Z,10.30
2022-10-13T17:11:35.994Z,10.70
2022-10-13T17:16:45.297Z,13.10
2022-10-13T17:21:52.346Z,12.70
2022-10-13T17:26:59.332Z,13.80
2022-10-13T17:32:06.404Z,12.40
2022-10-13T17:37:13.376Z,12.30
2022-10-13T17:42:20.444Z,12.60
2022-10-13T17:47:27.448Z,12.90
2022-10-13T17:52:34.608Z,13.10
2022-10-13T17:57:42.053Z,14.10
2022-10-13T18:02:49.526Z,11.30
2022-10-13T18:08:00.922Z,12.10
2022-10-13T18:13:08.450Z,10.60
2022-10-13T18:18:16.004Z,13.50
2022-10-13T18:23:24.643Z,14.00
2022-10-13T18:28:37.721Z,14.90
2022-10-13T18:33:46.432Z,13.40
2022-10-13T18:38:55.488Z,14.20
2022-10-13T18:44:03.848Z,12.20
2022-10-13T18:49:13.716Z,14.30
2022-10-13T18:54:23.826Z,14.10
2022-10-13T18:59:34.724Z,12.80
2022-10-13T19:04:44.825Z,13.70
2022-10-13T19:09:53.092Z,13.90
2022-10-13T19:15:00.800Z,13.00
2022-10-13T19:20:09.876Z,13.50
2022-10-13T19:25:17.950Z,14.30
2022-10-13T19:35:40.176Z,14.80
2022-10-13T19:40:49.976Z,15.90
2022-10-13T19:45:59.855Z,16.00
2022-10-13T19:51:10.331Z,13.80
2022-10-13T19:56:28.253Z,16.10
2022-10-13T20:01:40.191Z,12.60
2022-10-13T20:06:54.135Z,14.30
2022-10-13T20:12:01.955Z,15.90
2022-10-13T20:17:12.906Z,15.00
2022-10-13T20:22:21.369Z,13.90
2022-10-13T20:27:29.115Z,15.20
2022-10-13T20:32:36.625Z,14.40
2022-10-13T20:37:44.541Z,13.50
2022-10-13T20:42:55.570Z,17.30
2022-10-13T20:48:03.802Z,17.20
2022-10-13T20:53:11.608Z,17.00
2022-10-13T20:58:24.963Z,16.70
2022-10-13T21:03:34.090Z,16.90
2022-10-13T21:08:47.725Z,17.40
2022-10-13T21:13:58.582Z,17.40
2022-10-13T21:19:06.879Z,17.90
2022-10-13T21:24:17.151Z,18.20
2022-10-13T21:29:25.124Z,17.20
2022-10-13T21:34:33.457Z,16.80
2022-10-13T21:39:41.286Z,18.60
2022-10-13T21:44:48.792Z,17.40
2022-10-13T21:49:57.786Z,17.80
2022-10-13T21:55:06.872Z,19.50
2022-10-13T22:00:16.145Z,20.80
2022-10-13T22:05:23.882Z,19.20
2022-10-13T22:10:32.664Z,19.40
2022-10-13T22:15:48.497Z,21.00
2022-10-13T22:20:56.181Z,18.90
2022-10-13T22:26:03.579Z,20.20
2022-10-13T22:31:13.310Z,21.70
2022-10-13T22:36:23.422Z,22.50
2022-10-13T22:41:30.527Z,22.60
2022-10-13T22:46:39.189Z,24.90
2022-10-13T22:51:46.115Z,23.80
2022-10-13T22:56:53.066Z,23.20
2022-10-13T23:02:00.177Z,24.90
2022-10-13T23:07:08.677Z,25.10
2022-10-13T23:12:15.581Z,25.90
2022-10-13T23:17:22.810Z,25.30
2022-10-13T23:22:31.601Z,25.90
2022-10-13T23:27:41.338Z,27.10
2022-10-13T23:32:48.313Z,27.00
2022-10-13T23:37:55.727Z,27.70
2022-10-13T23:43:02.831Z,27.40
2022-10-13T23:48:10.187Z,26.30
2022-10-13T23:53:20.628Z,28.40
2022-10-13T23:58:27.609Z,30.00
